createdAt,value
2019-05-26T00:01:59.721Z,3.30
2019-05-26T00:07:05.370Z,4.30
2019-05-26T00:12:15.711Z,2.40
2019-05-26T00:17:17.761Z,3.13
2019-05-26T00:22:23.609Z,3.00
2019-05-26T00:27:28.146Z,4.60
2019-05-26T00:32:33.902Z,3.13
2019-05-26T00:37:49.235Z,4.90
2019-05-26T00:42:46.362Z,3.10
2019-05-26T00:47:50.864Z,3.50
2019-05-26T00:52:56.782Z,4.10
2019-05-26T00:58:01.579Z,6.33
2019-05-26T01:03:07.405Z,4.40
2019-05-26T01:08:11.935Z,3.40
2019-05-26T01:13:17.613Z,4.77
2019-05-26T01:18:23.098Z,4.47
2019-05-26T01:23:28.852Z,4.53
2019-05-26T01:28:33.433Z,4.07
2019-05-26T01:33:41.056Z,6.03
2019-05-26T01:38:45.585Z,4.10
2019-05-26T01:43:50.367Z,3.83
2019-05-26T01:48:54.991Z,5.57
2019-05-26T01:54:00.810Z,4.03
2019-05-26T01:59:05.323Z,4.20
2019-05-26T02:04:11.613Z,4.77
2019-05-26T02:09:16.150Z,3.87
2019-05-26T02:14:21.916Z,3.77
2019-05-26T02:19:26.433Z,3.13
2019-05-26T02:24:32.355Z,4.00
2019-05-26T02:29:36.870Z,4.43
2019-05-26T02:34:42.447Z,3.37
2019-05-26T02:39:47.086Z,5.77
2019-05-26T02:44:51.755Z,3.90
2019-05-26T02:49:56.292Z,3.63
2019-05-26T02:55:02.172Z,3.63
2019-05-26T03:00:07.026Z,4.10
2019-05-26T03:05:13.273Z,3.53
2019-05-26T03:10:17.871Z,3.13
2019-05-26T03:15:23.897Z,3.43
2019-05-26T03:20:28.410Z,3.20
2019-05-26T03:25:34.369Z,3.77
2019-05-26T03:30:38.979Z,3.57
2019-05-26T03:35:44.851Z,5.17
2019-05-26T03:40:49.441Z,3.27
2019-05-26T03:45:59.679Z,3.27
2019-05-26T03:51:04.233Z,2.53
2019-05-26T03:56:09.792Z,4.70
2019-05-26T04:01:14.313Z,3.10
2019-05-26T04:06:19.954Z,4.67
2019-05-26T04:11:24.476Z,6.70
2019-05-26T04:16:30.435Z,3.17
2019-05-26T04:21:34.946Z,4.13
2019-05-26T04:26:42.374Z,2.90
2019-05-26T04:31:46.896Z,4.13
2019-05-26T04:36:51.529Z,2.83
2019-05-26T04:41:56.104Z,4.63
2019-05-26T04:47:01.533Z,7.17
2019-05-26T04:52:06.099Z,5.63
2019-05-26T04:57:11.332Z,9.63
2019-05-26T05:02:15.852Z,7.90
2019-05-26T05:07:21.153Z,6.50
2019-05-26T05:12:25.682Z,6.07
2019-05-26T05:17:30.290Z,6.70
2019-05-26T05:22:34.805Z,5.53
2019-05-26T05:27:39.811Z,10.03
2019-05-26T05:32:44.327Z,9.50
2019-05-26T05:37:49.686Z,13.13
2019-05-26T05:42:54.218Z,7.33
2019-05-26T05:47:59.176Z,9.30
2019-05-26T05:53:03.690Z,8.90
2019-05-26T05:58:08.793Z,12.23
2019-05-26T06:03:13.302Z,8.63
2019-05-26T06:08:18.082Z,7.67
2019-05-26T06:13:22.761Z,10.70
2019-05-26T06:18:27.413Z,6.23
2019-05-26T06:23:31.977Z,7.60
2019-05-26T06:28:39.712Z,10.60
2019-05-26T06:33:44.244Z,9.87
2019-05-26T06:38:49.742Z,9.63
2019-05-26T06:43:54.261Z,8.97
2019-05-26T06:48:59.507Z,6.87
2019-05-26T06:54:04.057Z,5.37
2019-05-26T06:59:09.766Z,5.27
2019-05-26T07:04:14.289Z,4.97
2019-05-26T07:09:18.922Z,6.87
2019-05-26T07:14:23.458Z,5.20
2019-05-26T07:19:28.809Z,6.03
2019-05-26T07:24:33.337Z,5.07
2019-05-26T07:29:38.001Z,5.27
2019-05-26T07:34:42.533Z,5.80
2019-05-26T07:39:48.922Z,5.27
2019-05-26T07:44:53.434Z,6.97
2019-05-26T07:49:58.005Z,4.83
2019-05-26T07:55:02.557Z,6.43
2019-05-26T08:00:07.685Z,6.43
2019-05-26T08:05:12.221Z,3.60
2019-05-26T08:10:18.189Z,7.80
2019-05-26T08:15:22.711Z,5.67
2019-05-26T08:20:28.373Z,3.43
2019-05-26T08:25:32.901Z,4.17
2019-05-26T08:30:38.594Z,4.93
2019-05-26T08:35:43.159Z,5.00
2019-05-26T08:40:49.119Z,3.37
2019-05-26T08:45:54.093Z,4.83
2019-05-26T08:50:59.574Z,5.30
2019-05-26T08:56:04.089Z,4.20
2019-05-26T09:01:09.949Z,3.20
2019-05-26T09:06:14.513Z,3.67
2019-05-26T09:11:20.066Z,4.57
2019-05-26T09:16:24.590Z,3.13
2019-05-26T09:21:29.138Z,3.10
2019-05-26T09:26:33.673Z,2.93
2019-05-26T09:31:39.451Z,5.23
2019-05-26T09:36:44.001Z,2.23
2019-05-26T09:41:48.548Z,2.43
2019-05-26T09:46:53.121Z,2.27
2019-05-26T09:51:57.852Z,2.33
2019-05-26T09:57:02.494Z,3.70
2019-05-26T10:02:08.661Z,2.17
2019-05-26T10:07:15.866Z,3.13
2019-05-26T10:12:20.805Z,3.53
2019-05-26T10:17:25.327Z,1.70
2019-05-26T10:22:31.220Z,1.60
2019-05-26T10:27:35.846Z,4.37
2019-05-26T10:32:41.673Z,2.57
2019-05-26T10:37:46.341Z,1.70
2019-05-26T10:42:53.305Z,2.20
2019-05-26T10:47:58.458Z,2.83
2019-05-26T10:53:04.198Z,1.37
2019-05-26T10:58:08.744Z,2.10
2019-05-26T11:03:14.730Z,2.80
2019-05-26T11:08:19.301Z,2.43
2019-05-26T11:13:24.938Z,3.93
2019-05-26T11:18:29.535Z,2.03
2019-05-26T11:23:35.649Z,2.13
2019-05-26T11:28:40.256Z,1.97
2019-05-26T11:33:46.379Z,2.20
2019-05-26T11:38:51.030Z,1.90
2019-05-26T11:43:56.846Z,2.10
2019-05-26T11:49:01.585Z,6.27
2019-05-26T11:54:07.399Z,1.53
2019-05-26T11:59:11.998Z,3.00
2019-05-26T12:04:17.715Z,2.17
2019-05-26T12:09:22.239Z,1.97
2019-05-26T12:14:34.733Z,2.47
2019-05-26T12:19:34.581Z,1.67
2019-05-26T12:24:40.662Z,4.40
2019-05-26T12:29:45.202Z,1.57
2019-05-26T12:34:49.753Z,2.27
2019-05-26T12:39:54.337Z,1.57
2019-05-26T12:44:58.893Z,1.67
2019-05-26T12:50:03.616Z,3.17
2019-05-26T12:55:09.714Z,1.20
2019-05-26T13:00:14.717Z,2.83
2019-05-26T13:05:19.275Z,1.00
2019-05-26T13:10:23.820Z,3.60
2019-05-26T13:15:28.366Z,2.13
2019-05-26T13:20:32.932Z,1.43
2019-05-26T13:25:37.543Z,1.57
2019-05-26T13:30:42.066Z,3.77
2019-05-26T13:35:46.627Z,1.27
2019-05-26T13:40:51.151Z,1.43
2019-05-26T13:45:58.077Z,2.03
2019-05-26T13:51:04.256Z,1.23
2019-05-26T13:56:08.820Z,1.27
2019-05-26T14:01:13.424Z,1.57
2019-05-26T14:06:17.982Z,2.53
2019-05-26T14:11:22.597Z,1.30
2019-05-26T14:16:27.413Z,1.40
2019-05-26T14:21:32.003Z,1.63
2019-05-26T14:26:36.595Z,3.73
2019-05-26T14:31:41.173Z,1.20
2019-05-26T14:36:45.782Z,1.57
2019-05-26T14:41:50.505Z,1.17
2019-05-26T14:46:55.102Z,3.93
2019-05-26T14:51:59.786Z,2.33
2019-05-26T14:57:04.344Z,2.60
2019-05-26T15:02:08.942Z,1.20
2019-05-26T15:07:13.490Z,1.47
2019-05-26T15:12:19.235Z,1.57
2019-05-26T15:17:23.780Z,2.07
2019-05-26T15:22:28.455Z,1.77
2019-05-26T15:27:33.168Z,1.27
2019-05-26T15:32:37.900Z,1.30
2019-05-26T15:37:42.449Z,1.30
2019-05-26T15:42:48.433Z,1.13
2019-05-26T15:47:53.009Z,1.20
2019-05-26T15:52:57.624Z,1.03
2019-05-26T15:58:02.200Z,2.30
2019-05-26T16:03:07.133Z,1.60
2019-05-26T16:08:11.785Z,2.60
2019-05-26T16:13:16.702Z,2.13
2019-05-26T16:18:21.245Z,1.37
2019-05-26T16:23:26.334Z,1.70
2019-05-26T16:28:30.937Z,1.37
2019-05-26T16:33:36.507Z,1.63
2019-05-26T16:38:42.601Z,3.13
2019-05-26T16:43:48.233Z,1.53
2019-05-26T16:48:54.768Z,2.83
2019-05-26T16:53:59.125Z,3.10
2019-05-26T16:59:03.693Z,1.63
2019-05-26T17:04:09.799Z,3.10
2019-05-26T17:09:14.353Z,2.37
2019-05-26T17:14:20.016Z,1.67
2019-05-26T17:19:24.629Z,2.17
2019-05-26T17:24:30.513Z,2.27
2019-05-26T17:29:35.057Z,2.53
2019-05-26T17:34:40.947Z,1.50
2019-05-26T17:39:45.557Z,2.30
2019-05-26T17:44:51.533Z,2.00
2019-05-26T17:49:56.164Z,1.90
2019-05-26T17:55:01.337Z,1.93
2019-05-26T18:00:06.552Z,1.70
2019-05-26T18:05:11.585Z,1.57
2019-05-26T18:10:18.008Z,1.57
2019-05-26T18:15:23.621Z,3.00
2019-05-26T18:20:28.137Z,1.73
2019-05-26T18:25:33.680Z,1.90
2019-05-26T18:30:38.262Z,2.63
2019-05-26T18:35:43.256Z,2.00
2019-05-26T18:40:47.946Z,2.77
2019-05-26T18:45:52.900Z,1.60
2019-05-26T18:50:57.567Z,4.73
2019-05-26T18:56:02.121Z,2.27
2019-05-26T19:01:06.992Z,2.90
2019-05-26T19:06:11.990Z,2.10
2019-05-26T19:11:16.614Z,1.97
2019-05-26T19:16:21.790Z,2.13
2019-05-26T19:21:26.313Z,3.87
2019-05-26T19:26:31.433Z,5.23
2019-05-26T19:31:36.009Z,3.60
2019-05-26T19:36:40.991Z,2.67
2019-05-26T19:41:45.540Z,2.10
2019-05-26T19:46:52.866Z,2.53
2019-05-26T19:51:56.512Z,4.23
2019-05-26T19:57:01.106Z,3.43
2019-05-26T20:02:17.829Z,2.53
2019-05-26T20:07:15.394Z,3.97
2019-05-26T20:12:19.998Z,2.10
2019-05-26T20:17:24.581Z,2.43
2019-05-26T20:22:29.120Z,2.53
2019-05-26T20:27:33.845Z,2.10
2019-05-26T20:32:38.446Z,2.50
2019-05-26T20:37:43.062Z,2.50
2019-05-26T20:42:47.605Z,2.37
2019-05-26T20:47:53.067Z,2.50
2019-05-26T20:53:00.857Z,2.80
2019-05-26T20:58:06.149Z,3.93
2019-05-26T21:03:10.678Z,5.90
2019-05-26T21:08:15.370Z,3.07
2019-05-26T21:13:19.931Z,1.87
2019-05-26T21:18:25.416Z,2.37
2019-05-26T21:23:29.953Z,2.37
2019-05-26T21:28:34.612Z,2.03
2019-05-26T21:33:39.160Z,1.87
2019-05-26T21:38:44.617Z,2.10
2019-05-26T21:43:50.900Z,2.10
2019-05-26T21:48:56.117Z,2.27
2019-05-26T21:54:00.740Z,2.60
2019-05-26T21:59:05.890Z,8.97
2019-05-26T22:04:11.888Z,3.33
2019-05-26T22:09:16.511Z,2.27
2019-05-26T22:14:22.317Z,2.73
2019-05-26T22:19:26.873Z,2.57
2019-05-26T22:24:32.547Z,2.37
2019-05-26T22:29:37.092Z,2.33
2019-05-26T22:34:44.688Z,4.90
2019-05-26T22:39:50.509Z,2.27
2019-05-26T22:44:56.210Z,2.93
2019-05-26T22:50:00.772Z,2.30
2019-05-26T22:55:05.482Z,2.97
2019-05-26T23:00:10.037Z,3.47
2019-05-26T23:05:16.000Z,2.63
2019-05-26T23:10:20.549Z,3.63
2019-05-26T23:15:25.158Z,3.00
2019-05-26T23:20:29.677Z,4.33
2019-05-26T23:25:34.221Z,3.80
2019-05-26T23:30:38.769Z,2.27
2019-05-26T23:35:43.357Z,3.30
2019-05-26T23:40:48.010Z,3.20
2019-05-26T23:45:52.575Z,3.80
2019-05-26T23:50:57.115Z,2.20
2019-05-26T23:56:01.666Z,2.43
